Time;durP1;ratioP1;P1;durP2;ratioP2;P2;SDS_P1;SDS_P2;PMS_P1;PMS_P2;Temp;Humidity;BMP_temperature;BMP_pressure;BME280_temperature;BME280_humidity;BME280_pressure;Samples;Min_cycle;Max_cycle;Signal;HPM_P1;HPM_P2
2023/04/05 00:00:44;;;;;;;5.28;3.40;;;9.80;69.90;;;;;;5018352;28;20175;-85
2023/04/05 00:03:11;;;;;;;5.32;3.28;;;9.80;70.00;;;;;;5025807;28;20466;-84
2023/04/05 00:05:38;;;;;;;4.18;3.03;;;9.80;70.00;;;;;;5025510;28;20033;-85
2023/04/05 00:08:12;;;;;;;4.32;3.03;;;9.70;70.00;;;;;;4998411;28;20043;-84
2023/04/05 00:10:38;;;;;;;4.70;3.40;;;9.70;70.00;;;;;;5045944;28;20041;-86
2023/04/05 00:13:04;;;;;;;3.97;3.13;;;9.70;70.10;;;;;;5020746;28;20404;-85
2023/04/05 00:15:30;;;;;;;4.65;3.17;;;9.60;70.00;;;;;;4999854;28;20124;-85
2023/04/05 00:17:57;;;;;;;4.43;3.15;;;9.60;70.00;;;;;;5054397;28;20059;-85
2023/04/05 00:20:23;;;;;;;3.97;2.95;;;9.60;70.10;;;;;;5018560;28;20040;-85
2023/04/05 00:22:49;;;;;;;4.63;3.28;;;9.50;70.10;;;;;;5028124;28;20029;-85
2023/04/05 00:25:15;;;;;;;3.85;2.95;;;9.50;70.20;;;;;;5024461;28;20289;-86
2023/04/05 00:27:44;;;;;;;4.50;3.30;;;9.50;70.10;;;;;;5035895;28;20033;-85
2023/04/05 00:30:11;;;;;;;4.03;3.20;;;9.40;70.10;;;;;;5033906;28;20041;-84
2023/04/05 00:32:37;;;;;;;4.93;3.17;;;9.40;70.10;;;;;;5003555;28;20465;-85
2023/04/05 00:35:03;;;;;;;4.82;3.10;;;9.30;70.20;;;;;;5025510;28;20029;-90
2023/04/05 00:37:32;;;;;;;4.25;3.15;;;9.30;70.20;;;;;;5018623;28;20041;-88
2023/04/05 00:39:57;;;;;;;3.95;2.97;;;9.30;70.20;;;;;;5018572;28;20051;-86
2023/04/05 00:42:23;;;;;;;4.53;3.22;;;9.20;70.20;;;;;;5018067;28;20120;-85
2023/04/05 00:44:49;;;;;;;4.53;3.20;;;9.20;70.40;;;;;;4999239;28;20033;-85
2023/04/05 00:47:14;;;;;;;3.72;2.97;;;9.20;70.40;;;;;;4999183;28;20108;-87
2023/04/05 00:49:41;;;;;;;4.97;3.50;;;9.10;70.40;;;;;;5041957;28;20037;-85
2023/04/05 00:52:07;;;;;;;3.97;3.05;;;9.10;70.50;;;;;;5034588;28;20033;-84
2023/04/05 00:54:33;;;;;;;4.03;2.88;;;9.00;70.50;;;;;;5019220;28;20025;-85
2023/04/05 00:56:59;;;;;;;4.65;3.45;;;9.00;70.60;;;;;;5022590;28;20114;-89
2023/04/05 00:59:27;;;;;;;4.28;3.10;;;9.00;70.70;;;;;;5034080;28;20036;-85
2023/04/05 01:02:27;;;;;;;5.13;3.50;;;8.90;70.70;;;;;;5002979;28;20073;-84
2023/04/05 01:05:01;;;;;;;5.43;3.42;;;8.90;70.70;;;;;;5027845;28;20032;-86
2023/04/05 01:07:52;;;;;;;4.50;3.10;;;8.90;70.80;;;;;;5034784;28;20033;-85
2023/04/05 01:10:27;;;;;;;3.95;3.00;;;8.80;70.80;;;;;;5034905;28;20423;-85
2023/04/05 01:12:53;;;;;;;4.25;2.95;;;8.80;70.80;;;;;;5034112;28;20059;-84
2023/04/05 01:15:19;;;;;;;4.25;3.10;;;8.70;70.90;;;;;;5034871;28;20071;-85
2023/04/05 01:17:45;;;;;;;4.50;3.33;;;8.70;70.90;;;;;;5017001;28;20045;-84
2023/04/05 01:20:12;;;;;;;5.43;3.70;;;8.70;70.90;;;;;;4999456;28;20060;-84
2023/04/05 01:23:15;;;;;;;3.75;2.90;;;8.70;70.90;;;;;;5032560;28;20142;-84
2023/04/05 01:25:58;;;;;;;4.15;2.95;;;8.60;70.90;;;;;;5050438;28;20044;-84
2023/04/05 01:28:36;;;;;;;4.13;3.15;;;8.60;70.90;;;;;;5034628;28;20120;-84
2023/04/05 01:31:28;;;;;;;4.57;3.20;;;8.60;71.00;;;;;;5033390;28;20029;-84
2023/04/05 01:34:00;;;;;;;4.35;3.33;;;8.50;71.00;;;;;;5014700;28;20028;-85
2023/04/05 01:36:31;;;;;;;4.50;3.20;;;8.50;71.00;;;;;;5004371;28;20029;-88
2023/04/05 01:39:01;;;;;;;3.95;3.10;;;8.40;71.00;;;;;;5029987;28;20025;-84
2023/04/05 01:41:26;;;;;;;5.75;3.65;;;8.40;71.00;;;;;;5013268;28;21971;-86
2023/04/05 01:43:52;;;;;;;5.30;3.38;;;8.40;71.10;;;;;;5030317;28;20115;-84
2023/04/05 01:46:18;;;;;;;4.15;3.20;;;8.40;71.20;;;;;;4985249;28;20429;-85
2023/04/05 01:48:44;;;;;;;4.78;3.25;;;8.30;71.10;;;;;;5003218;28;20034;-84
2023/04/05 01:51:10;;;;;;;4.40;3.15;;;8.30;71.10;;;;;;5016754;28;20025;-87
2023/04/05 01:53:35;;;;;;;4.05;3.00;;;8.30;71.10;;;;;;5017698;28;20033;-85
2023/04/05 01:56:01;;;;;;;5.82;3.30;;;8.20;71.00;;;;;;5033891;28;20024;-84
2023/04/05 01:58:28;;;;;;;4.05;3.22;;;8.20;71.80;;;;;;5034340;28;20037;-84
2023/04/05 02:00:57;;;;;;;4.50;3.33;;;8.20;71.10;;;;;;5017370;28;20016;-84
2023/04/05 02:03:23;;;;;;;4.57;3.05;;;8.20;71.20;;;;;;5035336;28;20048;-84
2023/04/05 02:05:50;;;;;;;3.95;3.05;;;8.10;71.20;;;;;;4994285;28;20139;-84
2023/04/05 02:08:16;;;;;;;5.07;3.38;;;8.10;71.20;;;;;;5011915;28;20033;-84
2023/04/05 02:10:43;;;;;;;4.65;3.53;;;8.10;71.20;;;;;;5054986;28;20029;-84
2023/04/05 02:13:09;;;;;;;3.95;2.85;;;8.10;71.30;;;;;;5022688;28;20266;-86
2023/04/05 02:15:34;;;;;;;4.20;3.25;;;8.10;71.20;;;;;;5020700;28;20064;-84
2023/04/05 02:18:00;;;;;;;5.47;3.58;;;8.00;71.20;;;;;;5022918;28;20512;-85
2023/04/05 02:20:27;;;;;;;3.88;2.97;;;8.00;71.30;;;;;;5022773;28;20036;-87
2023/04/05 02:22:53;;;;;;;3.95;3.05;;;8.00;71.30;;;;;;5031033;28;20093;-84
2023/04/05 02:25:20;;;;;;;4.80;2.90;;;7.90;71.30;;;;;;5015658;28;20076;-84
2023/04/05 02:27:46;;;;;;;4.20;3.03;;;7.90;71.30;;;;;;5022902;28;20431;-84
2023/04/05 02:30:13;;;;;;;5.82;3.80;;;7.90;71.30;;;;;;5034447;28;20021;-84
2023/04/05 02:32:44;;;;;;;5.25;3.33;;;7.90;71.30;;;;;;5015698;28;20560;-91
2023/04/05 02:35:10;;;;;;;4.75;3.50;;;7.90;71.30;;;;;;5014454;28;20040;-84
2023/04/05 02:37:37;;;;;;;4.82;3.17;;;7.80;71.30;;;;;;5019378;28;20392;-85
2023/04/05 02:40:09;;;;;;;4.72;3.38;;;7.80;71.30;;;;;;5033813;28;20017;-89
2023/04/05 02:42:37;;;;;;;4.90;3.40;;;7.80;71.60;;;;;;5025697;28;20351;-87
2023/04/05 02:45:03;;;;;;;5.22;3.72;;;7.70;71.30;;;;;;5050499;28;20104;-86
2023/04/05 02:47:29;;;;;;;5.15;3.50;;;7.70;71.30;;;;;;5012136;28;20037;-84
2023/04/05 02:49:57;;;;;;;4.95;3.60;;;7.60;71.30;;;;;;5019284;28;20115;-89
2023/04/05 02:52:26;;;;;;;4.97;3.45;;;7.60;71.30;;;;;;5009573;28;20393;-87
2023/04/05 02:54:52;;;;;;;5.30;3.35;;;7.60;71.30;;;;;;5004920;28;20033;-85
2023/04/05 02:57:23;;;;;;;4.60;3.30;;;7.60;71.30;;;;;;5016160;28;20541;-85
2023/04/05 03:00:00;;;;;;;4.68;3.53;;;7.60;71.30;;;;;;5023158;28;20021;-85
2023/04/05 03:02:28;;;;;;;5.47;3.28;;;7.60;71.40;;;;;;5050207;28;20033;-85
2023/04/05 03:04:54;;;;;;;5.07;3.80;;;7.50;71.40;;;;;;5019589;28;20033;-89
2023/04/05 03:07:21;;;;;;;4.47;3.30;;;7.50;71.40;;;;;;5005655;28;20039;-85
2023/04/05 03:09:47;;;;;;;5.47;3.65;;;7.50;71.40;;;;;;5023185;28;20473;-85
2023/04/05 03:12:13;;;;;;;4.78;3.28;;;7.40;71.30;;;;;;5017683;28;20021;-84
2023/04/05 03:14:42;;;;;;;4.68;3.58;;;7.40;71.30;;;;;;5028493;28;20029;-84
2023/04/05 03:17:11;;;;;;;4.82;3.65;;;7.40;71.30;;;;;;5034548;28;20033;-84
2023/04/05 03:19:41;;;;;;;4.95;3.88;;;7.40;71.40;;;;;;5023667;28;20036;-86
2023/04/05 03:22:14;;;;;;;5.72;3.97;;;7.30;71.40;;;;;;5019149;28;20031;-84
2023/04/05 03:24:41;;;;;;;6.03;3.65;;;7.30;71.40;;;;;;5012555;28;20053;-84
2023/04/05 03:27:08;;;;;;;4.88;3.25;;;7.30;71.40;;;;;;5004610;28;20033;-84
2023/04/05 03:29:42;;;;;;;4.47;3.15;;;7.30;71.40;;;;;;5003437;28;20039;-85
2023/04/05 03:32:14;;;;;;;4.63;3.42;;;7.30;71.40;;;;;;5015723;28;20024;-86
2023/04/05 03:34:46;;;;;;;4.95;3.17;;;7.20;71.30;;;;;;5001380;28;20102;-85
2023/04/05 03:37:14;;;;;;;5.72;4.00;;;7.20;71.30;;;;;;5036863;28;20029;-84
2023/04/05 03:39:45;;;;;;;5.45;3.88;;;7.20;71.40;;;;;;5009316;28;20036;-85
2023/04/05 03:42:14;;;;;;;5.82;3.80;;;7.20;71.40;;;;;;5038678;28;20052;-85
2023/04/05 03:44:41;;;;;;;4.22;3.45;;;7.20;71.40;;;;;;5018626;28;20060;-84
2023/04/05 03:47:07;;;;;;;5.57;3.83;;;7.10;71.40;;;;;;5028307;28;20064;-86
2023/04/05 03:49:33;;;;;;;5.97;4.00;;;7.10;71.40;;;;;;5035631;28;20024;-84
2023/04/05 03:51:58;;;;;;;4.40;3.45;;;7.10;71.40;;;;;;5033644;28;20025;-83
2023/04/05 03:54:24;;;;;;;4.97;3.47;;;7.00;71.40;;;;;;5003353;28;20029;-84
2023/04/05 03:56:55;;;;;;;4.68;3.28;;;7.10;71.40;;;;;;5000631;28;20057;-84
2023/04/05 03:59:21;;;;;;;4.63;3.55;;;7.00;71.40;;;;;;5005531;28;20430;-84
2023/04/05 04:01:48;;;;;;;6.30;4.13;;;7.00;71.40;;;;;;5020512;28;20116;-85
2023/04/05 04:04:14;;;;;;;5.20;3.78;;;7.00;71.50;;;;;;5023179;28;20055;-86
2023/04/05 04:06:44;;;;;;;5.38;3.88;;;6.90;71.40;;;;;;5042988;28;20489;-84
2023/04/05 04:09:11;;;;;;;4.65;3.53;;;6.90;71.40;;;;;;5021750;28;20056;-85
2023/04/05 04:11:38;;;;;;;4.88;3.55;;;6.90;71.50;;;;;;5020220;28;20066;-85
2023/04/05 04:14:06;;;;;;;4.93;3.53;;;6.90;71.50;;;;;;5037966;28;20052;-85
2023/04/05 04:16:36;;;;;;;5.93;4.03;;;6.90;71.50;;;;;;5020455;28;20025;-85
2023/04/05 04:19:02;;;;;;;5.90;4.18;;;6.90;71.50;;;;;;5009238;28;20048;-83
2023/04/05 04:21:38;;;;;;;4.97;3.83;;;6.80;71.40;;;;;;5019137;28;20039;-84
2023/04/05 04:24:21;;;;;;;5.43;3.58;;;6.80;71.50;;;;;;5048039;28;20485;-84
2023/04/05 04:27:00;;;;;;;5.05;3.47;;;6.80;71.50;;;;;;5022114;28;20035;-85
2023/04/05 04:29:47;;;;;;;5.22;3.95;;;6.70;71.40;;;;;;5022681;28;20389;-84
2023/04/05 04:32:51;;;;;;;4.30;3.35;;;6.70;71.50;;;;;;5020478;28;20028;-88
2023/04/05 04:35:37;;;;;;;5.13;3.65;;;6.70;71.50;;;;;;5022769;28;20033;-85
2023/04/05 04:38:41;;;;;;;5.38;4.03;;;6.60;71.50;;;;;;5027893;28;20045;-85
2023/04/05 04:41:25;;;;;;;4.50;3.65;;;6.60;71.60;;;;;;5036798;28;20497;-84
2023/04/05 04:44:05;;;;;;;4.63;3.70;;;6.60;71.60;;;;;;5020221;28;20041;-84
2023/04/05 04:46:53;;;;;;;7.32;4.10;;;6.50;71.60;;;;;;5032816;28;20177;-86
2023/04/05 04:49:46;;;;;;;5.35;3.63;;;6.50;71.60;;;;;;5006011;28;20064;-84
2023/04/05 04:52:12;;;;;;;5.22;3.80;;;6.50;71.60;;;;;;5035201;28;20042;-87
2023/04/05 04:54:41;;;;;;;5.82;3.70;;;6.50;71.60;;;;;;5018534;28;20040;-87
2023/04/05 04:57:07;;;;;;;5.13;3.88;;;6.40;71.60;;;;;;5023810;28;20497;-85
2023/04/05 04:59:32;;;;;;;6.47;4.30;;;6.40;71.60;;;;;;5017752;28;20116;-85
2023/04/05 05:02:01;;;;;;;5.13;3.80;;;6.40;71.60;;;;;;5005257;28;20029;-86
2023/04/05 05:04:27;;;;;;;5.45;3.90;;;6.40;71.60;;;;;;5003557;28;20086;-87
2023/04/05 05:06:53;;;;;;;5.97;4.05;;;6.40;71.70;;;;;;5012794;28;20029;-87
2023/04/05 05:09:19;;;;;;;5.78;4.25;;;6.30;71.60;;;;;;5031227;28;20036;-87
2023/04/05 05:11:49;;;;;;;5.18;3.90;;;6.30;71.80;;;;;;5031960;28;20065;-87
2023/04/05 05:14:15;;;;;;;5.68;4.20;;;6.30;71.70;;;;;;5031015;28;20068;-87
2023/04/05 05:16:41;;;;;;;5.80;4.53;;;6.30;71.70;;;;;;5031490;28;20021;-86
2023/04/05 05:19:07;;;;;;;6.03;4.60;;;6.30;71.70;;;;;;5014793;28;20029;-85
2023/04/05 05:21:59;;;;;;;5.13;3.90;;;6.30;71.70;;;;;;5022295;28;20041;-85
2023/04/05 05:24:25;;;;;;;5.82;4.35;;;6.30;72.30;;;;;;5030423;28;20065;-84
2023/04/05 05:26:50;;;;;;;4.65;3.67;;;6.20;71.60;;;;;;4984092;28;20029;-87
2023/04/05 05:29:18;;;;;;;6.00;4.15;;;6.20;71.60;;;;;;5017839;28;20107;-83
2023/04/05 05:31:44;;;;;;;6.13;4.47;;;6.20;71.70;;;;;;5019105;28;20061;-85
2023/04/05 05:34:10;;;;;;;6.25;4.20;;;6.20;71.70;;;;;;5015694;28;20554;-84
2023/04/05 05:36:39;;;;;;;6.07;4.38;;;6.20;71.70;;;;;;5031048;28;20060;-87
2023/04/05 05:39:06;;;;;;;7.10;4.70;;;6.10;71.70;;;;;;5016023;28;20371;-85
2023/04/05 05:41:32;;;;;;;5.35;4.30;;;6.10;71.70;;;;;;5015023;28;20115;-83
2023/04/05 05:43:58;;;;;;;6.80;4.55;;;6.10;71.70;;;;;;5033555;28;20037;-83
2023/04/05 05:46:25;;;;;;;6.30;4.10;;;6.10;71.70;;;;;;5012668;28;20096;-84
2023/04/05 05:48:50;;;;;;;5.95;4.38;;;6.10;71.70;;;;;;4999012;28;20029;-84
2023/04/05 05:51:17;;;;;;;5.72;4.43;;;6.10;71.70;;;;;;5033659;28;20086;-84
2023/04/05 05:53:44;;;;;;;5.72;4.30;;;6.10;71.70;;;;;;5027107;28;20044;-83
2023/04/05 05:56:10;;;;;;;6.82;4.78;;;6.00;71.70;;;;;;5014973;28;20112;-83
2023/04/05 05:58:36;;;;;;;6.03;4.65;;;6.00;71.70;;;;;;5013587;28;20048;-83
2023/04/05 06:01:02;;;;;;;6.43;4.90;;;6.00;71.70;;;;;;5011037;28;20055;-82
2023/04/05 06:03:29;;;;;;;5.70;4.50;;;6.00;71.70;;;;;;4996695;28;20479;-85
2023/04/05 06:05:57;;;;;;;5.90;4.32;;;6.00;71.70;;;;;;5051169;28;20059;-83
2023/04/05 06:08:24;;;;;;;6.43;4.47;;;6.00;71.70;;;;;;5026125;28;20029;-83
2023/04/05 06:10:51;;;;;;;6.03;4.55;;;5.90;71.70;;;;;;5024887;28;20029;-82
2023/04/05 06:13:17;;;;;;;5.55;4.65;;;5.90;71.70;;;;;;5009328;28;20025;-84
2023/04/05 06:15:43;;;;;;;6.20;4.75;;;6.00;71.70;;;;;;5048767;28;20350;-84
2023/04/05 06:18:09;;;;;;;5.80;4.43;;;5.90;71.70;;;;;;5043324;28;20059;-86
2023/04/05 06:20:39;;;;;;;6.45;4.60;;;5.90;71.70;;;;;;5016940;28;20014;-83
2023/04/05 06:23:05;;;;;;;6.32;4.63;;;5.90;71.70;;;;;;5034589;28;20611;-83
2023/04/05 06:25:31;;;;;;;6.63;5.18;;;5.90;71.80;;;;;;5010663;28;20061;-84
2023/04/05 06:27:57;;;;;;;7.13;4.28;;;5.90;71.80;;;;;;5018282;28;20037;-84
2023/04/05 06:30:22;;;;;;;5.93;4.28;;;5.90;71.80;;;;;;5005354;28;20087;-83
2023/04/05 06:32:53;;;;;;;6.80;4.72;;;5.90;71.80;;;;;;5017323;28;20029;-83
2023/04/05 06:35:20;;;;;;;7.40;5.00;;;5.90;71.70;;;;;;5007557;28;20048;-83
2023/04/05 06:37:45;;;;;;;6.22;4.80;;;5.90;71.70;;;;;;5045470;28;20029;-84
2023/04/05 06:40:11;;;;;;;7.07;4.78;;;5.90;71.70;;;;;;5035709;28;20028;-85
2023/04/05 06:42:37;;;;;;;6.53;4.60;;;5.90;71.80;;;;;;5020340;28;20044;-84
2023/04/05 06:45:05;;;;;;;6.60;4.53;;;5.90;71.80;;;;;;5035121;28;20045;-82
2023/04/05 06:47:35;;;;;;;7.13;4.95;;;5.90;71.80;;;;;;5039024;28;20044;-81
2023/04/05 06:50:02;;;;;;;5.70;4.65;;;5.90;71.80;;;;;;5039112;28;20033;-83
2023/04/05 06:52:28;;;;;;;6.57;4.20;;;5.90;71.80;;;;;;5022503;28;20036;-81
2023/04/05 06:54:55;;;;;;;5.82;4.43;;;5.90;71.80;;;;;;5041362;28;20059;-86
2023/04/05 06:57:21;;;;;;;6.65;4.82;;;5.90;71.80;;;;;;5011294;28;20033;-86
2023/04/05 06:59:47;;;;;;;6.13;4.65;;;5.90;71.80;;;;;;5030345;28;20029;-86
2023/04/05 07:02:12;;;;;;;6.50;5.18;;;5.90;71.80;;;;;;5032331;28;20055;-85
2023/04/05 07:04:38;;;;;;;5.72;4.38;;;5.90;71.90;;;;;;5015346;28;20029;-80
2023/04/05 07:07:05;;;;;;;6.70;4.75;;;5.90;71.90;;;;;;5027980;28;20025;-83
2023/04/05 07:09:35;;;;;;;5.32;4.30;;;5.90;71.90;;;;;;5025270;28;20072;-82
2023/04/05 07:12:03;;;;;;;5.95;4.50;;;5.90;71.90;;;;;;5039404;28;20493;-80
2023/04/05 07:14:30;;;;;;;6.82;4.38;;;5.90;71.90;;;;;;5023052;28;20068;-82
2023/04/05 07:16:56;;;;;;;6.63;4.70;;;5.90;71.90;;;;;;5022279;28;20037;-82
2023/04/05 07:19:22;;;;;;;6.25;4.50;;;5.90;71.90;;;;;;5023031;28;20469;-82
2023/04/05 07:21:48;;;;;;;5.93;4.63;;;5.90;71.90;;;;;;5056383;28;20037;-83
2023/04/05 07:24:14;;;;;;;6.78;4.80;;;5.90;71.90;;;;;;5038217;28;20529;-82
2023/04/05 07:26:40;;;;;;;5.25;4.25;;;5.90;71.90;;;;;;5039181;28;20073;-85
2023/04/05 07:29:07;;;;;;;5.57;4.10;;;6.00;71.90;;;;;;5021496;28;20071;-81
2023/04/05 07:31:34;;;;;;;6.10;4.55;;;5.90;71.90;;;;;;5038168;28;20067;-82
2023/04/05 07:34:00;;;;;;;5.45;4.03;;;6.00;71.90;;;;;;5056507;28;20025;-86
2023/04/05 07:36:29;;;;;;;5.97;4.57;;;6.00;71.90;;;;;;5038389;28;20070;-82
2023/04/05 07:38:59;;;;;;;5.93;4.68;;;6.00;71.90;;;;;;5021878;28;20021;-81
2023/04/05 07:41:30;;;;;;;5.65;4.75;;;6.00;71.90;;;;;;5021096;28;20082;-84
2023/04/05 07:43:56;;;;;;;6.43;4.82;;;6.00;71.90;;;;;;5022213;28;20107;-89
2023/04/05 07:46:22;;;;;;;6.05;4.30;;;6.00;71.90;;;;;;5037920;28;20037;-81
2023/04/05 07:48:48;;;;;;;5.55;4.15;;;6.00;71.90;;;;;;5020253;28;20466;-81
2023/04/05 07:51:14;;;;;;;5.13;4.13;;;6.00;71.90;;;;;;5020965;28;20148;-80
2023/04/05 07:53:41;;;;;;;6.55;4.75;;;6.00;71.90;;;;;;5021125;28;20037;-81
2023/04/05 07:56:09;;;;;;;5.38;4.00;;;6.10;72.00;;;;;;5020862;28;20091;-82
2023/04/05 07:58:40;;;;;;;5.55;4.50;;;6.10;72.00;;;;;;5037898;28;20037;-81
2023/04/05 08:01:07;;;;;;;5.60;4.35;;;6.10;71.90;;;;;;5038359;28;20079;-81
2023/04/05 08:03:34;;;;;;;6.10;4.82;;;6.10;72.00;;;;;;5005006;28;20029;-80
2023/04/05 08:06:11;;;;;;;6.32;4.70;;;6.10;72.00;;;;;;5037664;28;20060;-80
2023/04/05 08:08:37;;;;;;;6.13;4.78;;;6.10;72.00;;;;;;5020911;28;20037;-82
2023/04/05 08:11:03;;;;;;;6.25;4.82;;;6.10;71.90;;;;;;5020639;28;20079;-82
2023/04/05 08:13:32;;;;;;;6.18;4.32;;;6.10;71.90;;;;;;5021331;28;20550;-86
2023/04/05 08:16:00;;;;;;;6.18;4.28;;;6.20;72.00;;;;;;5021621;28;20025;-82
2023/04/05 08:18:26;;;;;;;6.18;4.72;;;6.20;72.00;;;;;;5021382;28;20032;-81
2023/04/05 08:20:56;;;;;;;5.15;4.25;;;6.20;71.90;;;;;;5037654;28;20024;-83
2023/04/05 08:23:22;;;;;;;5.82;4.45;;;6.20;72.00;;;;;;5037445;28;20035;-82
2023/04/05 08:26:20;;;;;;;5.53;4.32;;;6.30;72.00;;;;;;5018630;28;20072;-80
2023/04/05 08:28:46;;;;;;;4.65;3.78;;;6.30;72.00;;;;;;4998149;28;20034;-80
2023/04/05 08:31:12;;;;;;;5.60;4.22;;;6.30;71.90;;;;;;5014190;28;20521;-81
2023/04/05 08:33:37;;;;;;;5.32;4.18;;;6.30;71.90;;;;;;4998406;28;20141;-80
2023/04/05 08:36:08;;;;;;;5.93;4.50;;;6.30;71.90;;;;;;4997715;28;20456;-81
2023/04/05 08:38:33;;;;;;;5.72;4.05;;;6.40;71.90;;;;;;5015261;28;20077;-81
2023/04/05 08:41:08;;;;;;;6.82;5.05;;;6.40;71.80;;;;;;5013526;28;20065;-81
2023/04/05 08:43:50;;;;;;;5.18;4.32;;;6.50;71.90;;;;;;5015460;28;20022;-82
2023/04/05 08:46:17;;;;;;;4.85;3.92;;;6.50;71.80;;;;;;5014153;28;20038;-81
2023/04/05 08:48:45;;;;;;;5.30;4.03;;;6.50;71.70;;;;;;5013892;28;20034;-82
2023/04/05 08:51:11;;;;;;;4.68;4.03;;;6.60;71.70;;;;;;4997623;28;20038;-82
2023/04/05 08:53:37;;;;;;;5.78;4.25;;;6.60;71.60;;;;;;5013801;28;20059;-81
2023/04/05 08:56:04;;;;;;;5.38;4.05;;;6.70;71.60;;;;;;5013367;28;20034;-80
2023/04/05 08:58:33;;;;;;;4.93;3.88;;;6.70;71.60;;;;;;5013463;28;20028;-82
2023/04/05 09:01:00;;;;;;;5.10;4.03;;;6.80;71.60;;;;;;5013922;28;20125;-81
2023/04/05 09:03:33;;;;;;;5.75;4.32;;;6.80;71.40;;;;;;4996912;28;20157;-80
2023/04/05 09:06:35;;;;;;;4.75;3.70;;;6.90;71.40;;;;;;5015044;28;20044;-82
2023/04/05 09:09:06;;;;;;;4.90;3.70;;;7.00;71.30;;;;;;5013092;28;20038;-83
2023/04/05 09:11:33;;;;;;;5.72;4.50;;;7.10;71.40;;;;;;5013477;28;20069;-86
2023/04/05 09:14:05;;;;;;;6.88;4.32;;;7.10;71.30;;;;;;4996814;28;20033;-81
2023/04/05 09:16:41;;;;;;;4.88;3.83;;;7.20;71.20;;;;;;4996955;28;20088;-84
2023/04/05 09:19:07;;;;;;;4.70;3.95;;;7.30;71.20;;;;;;5014239;28;20045;-82
2023/04/05 09:22:03;;;;;;;4.90;3.88;;;7.30;71.00;;;;;;4997628;28;20021;-85
2023/04/05 09:24:40;;;;;;;4.75;3.63;;;7.40;71.10;;;;;;5009573;28;20041;-81
2023/04/05 09:27:12;;;;;;;5.45;3.85;;;7.50;70.90;;;;;;5022364;28;20049;-83
2023/04/05 09:29:45;;;;;;;5.63;3.95;;;7.60;70.80;;;;;;5033844;28;20387;-82
2023/04/05 09:32:13;;;;;;;5.75;4.28;;;7.70;70.80;;;;;;5033378;28;20099;-84
2023/04/05 09:34:41;;;;;;;5.32;3.75;;;7.70;70.70;;;;;;5017101;28;20040;-82
2023/04/05 09:37:18;;;;;;;5.38;4.30;;;7.80;70.70;;;;;;5032943;28;20040;-82
2023/04/05 09:39:46;;;;;;;5.90;4.22;;;7.90;70.70;;;;;;5016892;28;20032;-81
2023/04/05 09:42:16;;;;;;;4.10;3.33;;;8.00;70.60;;;;;;5016580;28;20025;-83
2023/04/05 09:44:51;;;;;;;5.78;4.22;;;8.10;70.60;;;;;;5033390;28;20442;-83
2023/04/05 09:47:18;;;;;;;5.13;3.85;;;8.20;70.60;;;;;;5016262;28;20033;-83
2023/04/05 09:49:44;;;;;;;5.07;3.80;;;8.30;70.50;;;;;;5015914;28;20021;-83
2023/04/05 09:52:27;;;;;;;6.05;3.85;;;8.40;70.50;;;;;;5032935;28;20029;-83
2023/04/05 09:54:55;;;;;;;5.05;3.70;;;8.50;70.60;;;;;;5033643;28;20021;-86
2023/04/05 09:57:29;;;;;;;4.97;3.65;;;8.60;70.40;;;;;;5033398;28;20061;-85
2023/04/05 09:59:55;;;;;;;5.65;3.85;;;8.70;70.40;;;;;;5033230;28;20061;-82
2023/04/05 10:02:21;;;;;;;4.97;3.90;;;8.70;70.30;;;;;;5036405;28;20025;-82
2023/04/05 10:04:48;;;;;;;5.55;3.75;;;8.90;70.40;;;;;;5025175;28;20049;-82
2023/04/05 10:07:16;;;;;;;5.63;4.25;;;9.00;70.40;;;;;;5038693;28;20065;-85
2023/04/05 10:09:46;;;;;;;4.93;3.90;;;9.10;70.40;;;;;;5016540;28;20022;-86
2023/04/05 10:12:25;;;;;;;5.85;4.35;;;9.20;70.30;;;;;;5034216;28;20031;-83
2023/04/05 10:14:51;;;;;;;4.97;3.92;;;9.30;70.30;;;;;;5036463;28;20036;-82
2023/04/05 10:17:33;;;;;;;4.68;3.63;;;9.40;70.20;;;;;;5003169;28;20029;-85
2023/04/05 10:20:09;;;;;;;5.68;3.75;;;9.50;70.20;;;;;;5036768;28;20076;-85
2023/04/05 10:22:48;;;;;;;4.97;3.83;;;9.60;70.10;;;;;;5038028;28;20064;-83
2023/04/05 10:25:52;;;;;;;5.30;3.88;;;9.70;70.10;;;;;;5020227;28;20029;-87
2023/04/05 10:28:34;;;;;;;5.20;3.83;;;9.90;70.10;;;;;;5035846;28;20060;-82
2023/04/05 10:31:27;;;;;;;5.15;3.60;;;9.90;69.90;;;;;;5036348;28;20034;-86
2023/04/05 10:34:07;;;;;;;5.20;3.85;;;10.00;69.90;;;;;;5036335;28;20049;-82
2023/04/05 10:36:48;;;;;;;5.22;3.92;;;10.10;69.90;;;;;;5019472;28;20029;-83
2023/04/05 10:39:23;;;;;;;5.05;3.95;;;10.30;70.00;;;;;;5020041;28;20481;-81
2023/04/05 10:53:19;;;;;;;5.32;3.97;;;10.80;69.70;;;;;;5037600;28;20465;-81
2023/04/05 11:07:17;;;;;;;4.53;3.55;;;11.30;69.40;;;;;;5036822;28;20616;-81
2023/04/05 11:10:00;;;;;;;5.00;3.65;;;11.50;69.30;;;;;;5034938;28;20076;-87
2023/04/05 11:13:02;;;;;;;5.05;3.95;;;11.60;69.50;;;;;;5035726;28;20036;-82
2023/04/05 11:15:31;;;;;;;4.93;3.55;;;11.60;69.40;;;;;;4958739;28;20547;-84
2023/04/05 11:18:16;;;;;;;4.57;3.65;;;11.80;69.30;;;;;;5004699;28;20100;-81
2023/04/05 11:20:41;;;;;;;4.80;3.85;;;11.90;69.40;;;;;;5035095;28;20033;-85
2023/04/05 11:23:09;;;;;;;5.80;4.20;;;12.00;69.30;;;;;;5033493;28;20068;-81
2023/04/05 11:25:39;;;;;;;4.72;3.92;;;12.10;69.30;;;;;;5001980;28;20033;-84
2023/04/05 11:28:07;;;;;;;5.20;3.85;;;12.20;69.30;;;;;;5034371;28;20056;-85
2023/04/05 11:30:52;;;;;;;5.43;3.95;;;12.20;69.20;;;;;;5002149;28;20040;-82
2023/04/05 11:33:38;;;;;;;4.97;4.10;;;12.30;69.30;;;;;;5034947;28;20030;-82
2023/04/05 11:36:05;;;;;;;5.95;4.03;;;12.50;69.40;;;;;;5034504;28;20080;-85
2023/04/05 11:38:30;;;;;;;5.40;3.85;;;12.50;69.30;;;;;;5034320;28;20022;-82
2023/04/05 11:41:16;;;;;;;5.45;4.40;;;12.60;69.40;;;;;;5034546;28;20022;-83
2023/04/05 11:43:50;;;;;;;;;;;12.70;69.40;;;;;;5019112;28;20029;-83
2023/04/05 11:46:15;;;;;;;5.68;3.53;;;12.70;69.20;;;;;;5034473;28;19912;-81
2023/04/05 11:48:41;;;;;;;5.38;3.90;;;12.80;69.20;;;;;;5035216;28;20026;-81
2023/04/05 11:51:12;;;;;;;5.18;3.92;;;12.90;69.40;;;;;;5017450;28;20052;-81
2023/04/05 11:53:38;;;;;;;5.05;3.85;;;13.00;69.70;;;;;;5034793;28;20034;-82
2023/04/05 11:56:11;;;;;;;5.28;4.00;;;13.00;69.70;;;;;;5034850;28;20445;-82
2023/04/05 11:58:37;;;;;;;5.32;4.38;;;13.10;69.80;;;;;;5034335;28;20382;-81
2023/04/05 12:01:08;;;;;;;5.40;3.95;;;13.10;69.80;;;;;;5017478;28;20506;-86
2023/04/05 12:03:35;;;;;;;5.07;3.72;;;13.20;70.00;;;;;;5034100;28;20048;-82
2023/04/05 12:06:03;;;;;;;5.30;4.00;;;13.30;70.00;;;;;;5034488;28;20389;-83
2023/04/05 12:08:40;;;;;;;4.85;3.78;;;13.30;70.00;;;;;;5037459;28;20029;-84
2023/04/05 12:11:11;;;;;;;5.50;4.00;;;13.40;70.20;;;;;;5022743;28;20025;-83
2023/04/05 12:13:38;;;;;;;4.93;3.97;;;13.40;70.10;;;;;;5026736;28;20030;-91
2023/04/05 12:16:05;;;;;;;5.18;4.28;;;13.50;70.20;;;;;;5031055;28;20101;-87
2023/04/05 12:18:33;;;;;;;5.03;3.70;;;13.50;70.30;;;;;;5046053;28;20059;-85
2023/04/05 12:21:01;;;;;;;5.07;3.92;;;13.60;70.30;;;;;;5044780;28;20193;-85
2023/04/05 12:23:27;;;;;;;6.05;3.97;;;13.70;70.40;;;;;;5043066;28;20032;-84
2023/04/05 12:25:55;;;;;;;5.43;3.97;;;13.70;70.40;;;;;;5020608;28;20120;-85
2023/04/05 12:28:21;;;;;;;4.50;3.80;;;13.70;70.40;;;;;;5034978;28;20085;-85
2023/04/05 12:30:57;;;;;;;4.82;3.63;;;13.70;70.40;;;;;;5017984;28;20109;-85
2023/04/05 12:33:31;;;;;;;4.55;3.42;;;13.80;70.40;;;;;;5018043;28;20084;-85
2023/04/05 12:35:58;;;;;;;5.10;4.10;;;13.90;70.40;;;;;;5035999;28;20026;-83
2023/04/05 12:38:29;;;;;;;5.30;4.10;;;13.90;70.40;;;;;;5042663;28;20028;-84
2023/04/05 12:41:02;;;;;;;5.68;4.10;;;13.90;70.40;;;;;;5024729;28;20029;-86
2023/04/05 12:43:41;;;;;;;4.65;3.85;;;13.90;70.50;;;;;;5018995;28;20033;-80
2023/04/05 12:46:15;;;;;;;5.78;4.10;;;14.00;71.20;;;;;;5017544;28;20033;-86
2023/04/05 12:48:42;;;;;;;5.35;4.00;;;14.00;70.50;;;;;;5033997;28;20041;-86
2023/04/05 12:51:16;;;;;;;4.90;3.97;;;14.10;70.50;;;;;;5017318;28;20113;-81
2023/04/05 12:53:48;;;;;;;5.05;4.03;;;14.10;70.50;;;;;;5017487;28;20047;-83
2023/04/05 12:56:17;;;;;;;5.32;4.18;;;14.10;70.40;;;;;;5016484;28;20021;-83
2023/04/05 12:58:51;;;;;;;5.35;4.28;;;14.20;70.50;;;;;;5016894;28;20048;-84
2023/04/05 13:01:17;;;;;;;5.97;4.45;;;14.20;70.50;;;;;;5033264;28;20029;-82
2023/04/05 13:03:44;;;;;;;5.32;4.20;;;14.20;70.40;;;;;;5033443;28;20026;-81
2023/04/05 13:06:10;;;;;;;5.28;4.13;;;14.30;70.40;;;;;;5016451;28;20037;-83
2023/04/05 13:08:35;;;;;;;5.28;4.30;;;14.30;70.40;;;;;;5032949;28;20044;-81
2023/04/05 13:11:01;;;;;;;5.70;4.40;;;14.40;70.40;;;;;;5016829;28;20116;-82
2023/04/05 13:13:27;;;;;;;5.50;4.40;;;14.50;70.50;;;;;;5016541;28;20057;-82
2023/04/05 13:15:53;;;;;;;5.07;4.22;;;14.50;70.50;;;;;;5017186;28;20429;-83
2023/04/05 13:18:19;;;;;;;5.75;4.25;;;14.50;70.50;;;;;;5032945;28;20112;-82
2023/04/05 13:20:45;;;;;;;5.53;4.18;;;14.60;70.50;;;;;;5000322;28;20474;-82
2023/04/05 13:23:12;;;;;;;5.65;4.30;;;14.60;70.50;;;;;;5016045;28;20489;-81
2023/04/05 13:25:44;;;;;;;6.05;4.25;;;14.70;70.50;;;;;;5032507;28;20033;-82
2023/04/05 13:28:10;;;;;;;5.03;4.03;;;14.70;70.60;;;;;;5016223;28;20135;-81
2023/04/05 13:30:36;;;;;;;5.43;4.35;;;14.70;70.50;;;;;;5033422;28;20053;-81
2023/04/05 13:33:03;;;;;;;5.68;4.38;;;14.80;70.50;;;;;;5032225;28;20060;-86